sensor_id;sensor_type;location;lat;lon;timestamp;noise_LAeq;noise_LA_min;noise_LA_max;noise_LA01;noise_LA95
45964;Laerm;31671;48.092;11.842;2024-03-29T00:01:05;35.22;27.88;56.28;;
45964;Laerm;31671;48.092;11.842;2024-03-29T00:03:30;34.95;28.04;54.54;;
45964;Laerm;31671;48.092;11.842;2024-03-29T00:05:56;37.10;27.95;58.09;;
45964;Laerm;31671;48.092;11.842;2024-03-29T00:08:22;40.95;27.97;61.22;;
45964;Laerm;31671;48.092;11.842;2024-03-29T00:10:47;31.82;27.52;47.76;;
45964;Laerm;31671;48.092;11.842;2024-03-29T00:13:13;36.94;28.12;55.82;;
45964;Laerm;31671;48.092;11.842;2024-03-29T00:15:39;38.09;28.17;57.28;;
45964;Laerm;31671;48.092;11.842;2024-03-29T00:18:05;35.06;27.88;55.41;;
45964;Laerm;31671;48.092;11.842;2024-03-29T00:20:31;44.30;28.15;66.15;;
45964;Laerm;31671;48.092;11.842;2024-03-29T00:22:57;42.24;27.90;60.29;;
45964;Laerm;31671;48.092;11.842;2024-03-29T00:25:22;39.29;28.08;55.64;;
45964;Laerm;31671;48.092;11.842;2024-03-29T00:27:48;39.49;28.08;58.11;;
45964;Laerm;31671;48.092;11.842;2024-03-29T00:30:14;47.57;27.91;68.23;;
45964;Laerm;31671;48.092;11.842;2024-03-29T00:32:40;42.38;27.83;66.16;;
45964;Laerm;31671;48.092;11.842;2024-03-29T00:35:05;39.75;27.84;60.84;;
45964;Laerm;31671;48.092;11.842;2024-03-29T00:37:31;38.96;28.01;56.04;;
45964;Laerm;31671;48.092;11.842;2024-03-29T00:39:57;51.46;27.85;67.66;;
45964;Laerm;31671;48.092;11.842;2024-03-29T00:42:23;45.13;27.96;64.76;;
45964;Laerm;31671;48.092;11.842;2024-03-29T00:44:49;45.03;27.77;64.45;;
45964;Laerm;31671;48.092;11.842;2024-03-29T00:47:15;42.53;27.78;68.39;;
45964;Laerm;31671;48.092;11.842;2024-03-29T00:49:40;43.73;27.90;62.67;;
45964;Laerm;31671;48.092;11.842;2024-03-29T00:52:06;47.31;27.92;66.57;;
45964;Laerm;31671;48.092;11.842;2024-03-29T00:54:32;49.95;28.16;67.94;;
45964;Laerm;31671;48.092;11.842;2024-03-29T00:56:57;55.50;28.07;73.36;;
45964;Laerm;31671;48.092;11.842;2024-03-29T00:59:23;51.43;27.95;66.63;;
45964;Laerm;31671;48.092;11.842;2024-03-29T01:01:49;48.18;27.70;67.32;;
45964;Laerm;31671;48.092;11.842;2024-03-29T01:04:15;51.78;27.93;69.21;;
45964;Laerm;31671;48.092;11.842;2024-03-29T01:06:41;48.09;27.94;66.07;;
45964;Laerm;31671;48.092;11.842;2024-03-29T01:09:07;57.53;28.11;74.61;;
45964;Laerm;31671;48.092;11.842;2024-03-29T01:11:32;46.57;27.78;68.74;;
45964;Laerm;31671;48.092;11.842;2024-03-29T01:13:58;50.55;27.97;67.00;;
45964;Laerm;31671;48.092;11.842;2024-03-29T01:16:24;51.66;27.95;71.17;;
45964;Laerm;31671;48.092;11.842;2024-03-29T01:18:50;51.54;27.76;69.46;;
45964;Laerm;31671;48.092;11.842;2024-03-29T01:21:15;49.14;27.58;65.91;;
45964;Laerm;31671;48.092;11.842;2024-03-29T01:23:41;47.97;28.20;65.19;;
45964;Laerm;31671;48.092;11.842;2024-03-29T01:26:07;51.61;28.01;68.79;;
45964;Laerm;31671;48.092;11.842;2024-03-29T01:28:33;50.70;27.88;70.58;;
45964;Laerm;31671;48.092;11.842;2024-03-29T01:30:59;51.47;28.27;67.74;;
45964;Laerm;31671;48.092;11.842;2024-03-29T01:33:25;45.58;28.01;63.24;;
45964;Laerm;31671;48.092;11.842;2024-03-29T01:35:51;52.45;28.09;69.39;;
45964;Laerm;31671;48.092;11.842;2024-03-29T01:38:17;48.11;28.02;67.83;;
45964;Laerm;31671;48.092;11.842;2024-03-29T01:40:43;47.49;27.89;67.69;;
45964;Laerm;31671;48.092;11.842;2024-03-29T01:43:08;49.96;27.78;70.32;;
45964;Laerm;31671;48.092;11.842;2024-03-29T01:45:35;51.68;27.68;68.21;;
45964;Laerm;31671;48.092;11.842;2024-03-29T01:48:01;49.82;27.92;67.76;;
45964;Laerm;31671;48.092;11.842;2024-03-29T01:50:27;51.57;27.89;73.16;;
45964;Laerm;31671;48.092;11.842;2024-03-29T01:52:52;54.51;27.72;69.76;;
45964;Laerm;31671;48.092;11.842;2024-03-29T01:55:18;49.69;27.59;69.64;;
45964;Laerm;31671;48.092;11.842;2024-03-29T01:57:44;52.74;27.86;72.81;;
45964;Laerm;31671;48.092;11.842;2024-03-29T02:00:10;51.22;27.89;71.62;;
45964;Laerm;31671;48.092;11.842;2024-03-29T02:02:36;46.11;27.87;61.57;;
45964;Laerm;31671;48.092;11.842;2024-03-29T02:05:02;51.38;28.06;67.59;;
45964;Laerm;31671;48.092;11.842;2024-03-29T02:07:28;46.29;27.89;63.61;;
45964;Laerm;31671;48.092;11.842;2024-03-29T02:09:54;52.44;27.94;71.87;;
45964;Laerm;31671;48.092;11.842;2024-03-29T02:12:20;44.34;28.15;64.74;;
45964;Laerm;31671;48.092;11.842;2024-03-29T02:14:45;43.65;27.81;63.61;;
45964;Laerm;31671;48.092;11.842;2024-03-29T02:17:11;45.98;27.85;64.05;;
45964;Laerm;31671;48.092;11.842;2024-03-29T02:19:37;46.92;27.91;66.15;;
45964;Laerm;31671;48.092;11.842;2024-03-29T02:22:02;41.04;27.99;61.84;;
45964;Laerm;31671;48.092;11.842;2024-03-29T02:24:29;45.35;27.97;66.67;;
45964;Laerm;31671;48.092;11.842;2024-03-29T02:26:54;46.27;27.70;67.67;;
45964;Laerm;31671;48.092;11.842;2024-03-29T02:29:21;36.61;27.62;55.19;;
45964;Laerm;31671;48.092;11.842;2024-03-29T02:31:47;44.67;27.90;66.57;;
45964;Laerm;31671;48.092;11.842;2024-03-29T02:34:13;46.30;28.07;65.91;;
45964;Laerm;31671;48.092;11.842;2024-03-29T02:36:38;38.09;27.89;57.68;;
45964;Laerm;31671;48.092;11.842;2024-03-29T02:39:04;44.72;27.81;65.76;;
45964;Laerm;31671;48.092;11.842;2024-03-29T02:41:30;48.37;27.72;69.62;;
45964;Laerm;31671;48.092;11.842;2024-03-29T02:43:56;46.84;27.95;68.05;;
45964;Laerm;31671;48.092;11.842;2024-03-29T02:46:23;53.56;27.90;74.25;;
45964;Laerm;31671;48.092;11.842;2024-03-29T02:48:49;47.56;28.01;63.86;;
45964;Laerm;31671;48.092;11.842;2024-03-29T02:51:15;55.85;28.00;75.39;;
45964;Laerm;31671;48.092;11.842;2024-03-29T02:53:40;52.26;28.14;69.06;;
45964;Laerm;31671;48.092;11.842;2024-03-29T02:56:06;52.16;27.99;71.70;;
45964;Laerm;31671;48.092;11.842;2024-03-29T02:58:32;48.17;27.89;70.34;;
45964;Laerm;31671;48.092;11.842;2024-03-29T03:01:04;41.77;27.81;63.58;;
45964;Laerm;31671;48.092;11.842;2024-03-29T03:03:30;51.13;28.14;70.88;;
45964;Laerm;31671;48.092;11.842;2024-03-29T03:05:55;53.43;27.92;74.24;;
45964;Laerm;31671;48.092;11.842;2024-03-29T03:08:21;47.47;28.07;64.19;;
45964;Laerm;31671;48.092;11.842;2024-03-29T03:10:47;42.80;27.48;65.33;;
45964;Laerm;31671;48.092;11.842;2024-03-29T03:13:13;52.24;27.71;69.55;;
45964;Laerm;31671;48.092;11.842;2024-03-29T03:15:38;53.63;28.03;70.70;;
45964;Laerm;31671;48.092;11.842;2024-03-29T03:18:04;41.69;28.22;58.67;;
45964;Laerm;31671;48.092;11.842;2024-03-29T03:20:30;48.78;28.04;70.52;;
45964;Laerm;31671;48.092;11.842;2024-03-29T03:22:55;47.65;28.10;64.85;;
45964;Laerm;31671;48.092;11.842;2024-03-29T03:25:21;43.22;28.05;61.40;;
45964;Laerm;31671;48.092;11.842;2024-03-29T03:27:47;37.87;28.20;54.89;;
45964;Laerm;31671;48.092;11.842;2024-03-29T03:30:13;45.02;28.04;65.57;;
45964;Laerm;31671;48.092;11.842;2024-03-29T03:32:38;43.31;27.53;64.08;;
45964;Laerm;31671;48.092;11.842;2024-03-29T03:35:04;33.96;28.02;52.99;;
45964;Laerm;31671;48.092;11.842;2024-03-29T03:37:30;37.65;27.91;61.67;;
45964;Laerm;31671;48.092;11.842;2024-03-29T03:39:56;50.12;27.76;70.79;;
45964;Laerm;31671;48.092;11.842;2024-03-29T03:42:21;53.95;27.82;74.06;;
45964;Laerm;31671;48.092;11.842;2024-03-29T03:44:47;44.75;27.98;67.59;;
45964;Laerm;31671;48.092;11.842;2024-03-29T03:47:13;36.25;27.61;59.24;;
45964;Laerm;31671;48.092;11.842;2024-03-29T03:49:38;46.91;27.74;67.73;;
45964;Laerm;31671;48.092;11.842;2024-03-29T03:52:04;43.01;27.82;64.52;;
45964;Laerm;31671;48.092;11.842;2024-03-29T03:54:30;30.23;27.65;46.46;;
45964;Laerm;31671;48.092;11.842;2024-03-29T03:56:56;36.03;27.64;54.87;;
45964;Laerm;31671;48.092;11.842;2024-03-29T03:59:21;32.94;27.82;51.51;;
45964;Laerm;31671;48.092;11.842;2024-03-29T04:01:47;44.08;27.88;66.57;;
45964;Laerm;31671;48.092;11.842;2024-03-29T04:04:13;36.81;28.10;57.67;;
45964;Laerm;31671;48.092;11.842;2024-03-29T04:06:39;47.08;27.81;65.34;;
45964;Laerm;31671;48.092;11.842;2024-03-29T04:09:04;48.13;28.17;66.95;;
45964;Laerm;31671;48.092;11.842;2024-03-29T04:11:30;55.84;28.35;75.46;;
45964;Laerm;31671;48.092;11.842;2024-03-29T04:13:56;53.99;28.46;73.53;;
45964;Laerm;31671;48.092;11.842;2024-03-29T04:16:21;52.80;28.21;71.20;;
45964;Laerm;31671;48.092;11.842;2024-03-29T04:18:47;45.32;28.20;64.29;;
45964;Laerm;31671;48.092;11.842;2024-03-29T04:21:13;51.96;28.25;69.55;;
45964;Laerm;31671;48.092;11.842;2024-03-29T04:23:38;45.52;28.05;65.90;;
45964;Laerm;31671;48.092;11.842;2024-03-29T04:26:04;45.30;28.36;62.40;;
45964;Laerm;31671;48.092;11.842;2024-03-29T04:28:30;48.76;28.28;70.27;;
45964;Laerm;31671;48.092;11.842;2024-03-29T04:30:56;41.83;27.97;62.91;;
45964;Laerm;31671;48.092;11.842;2024-03-29T04:33:22;46.54;28.26;62.27;;
45964;Laerm;31671;48.092;11.842;2024-03-29T04:36:02;41.58;28.00;60.29;;
45964;Laerm;31671;48.092;11.842;2024-03-29T04:38:28;45.15;28.10;62.27;;
45964;Laerm;31671;48.092;11.842;2024-03-29T04:40:55;49.95;27.99;67.61;;
45964;Laerm;31671;48.092;11.842;2024-03-29T04:43:21;48.31;27.98;65.10;;
45964;Laerm;31671;48.092;11.842;2024-03-29T04:45:47;55.51;28.16;77.60;;
45964;Laerm;31671;48.092;11.842;2024-03-29T04:48:12;50.46;28.06;67.70;;
45964;Laerm;31671;48.092;11.842;2024-03-29T04:50:38;57.29;28.08;73.33;;
45964;Laerm;31671;48.092;11.842;2024-03-29T04:53:04;51.78;27.84;69.29;;
45964;Laerm;31671;48.092;11.842;2024-03-29T04:55:30;51.53;28.35;67.43;;
45964;Laerm;31671;48.092;11.842;2024-03-29T04:57:56;51.84;28.28;68.22;;
45964;Laerm;31671;48.092;11.842;2024-03-29T05:00:21;56.06;27.89;72.32;;
45964;Laerm;31671;48.092;11.842;2024-03-29T05:02:47;56.11;28.48;74.86;;
45964;Laerm;31671;48.092;11.842;2024-03-29T05:05:13;49.92;28.28;68.68;;
45964;Laerm;31671;48.092;11.842;2024-03-29T05:07:39;53.39;28.14;75.21;;
45964;Laerm;31671;48.092;11.842;2024-03-29T05:10:04;52.73;28.14;70.24;;
45964;Laerm;31671;48.092;11.842;2024-03-29T05:12:30;49.05;28.22;67.05;;
45964;Laerm;31671;48.092;11.842;2024-03-29T05:14:56;57.48;28.00;75.85;;
45964;Laerm;31671;48.092;11.842;2024-03-29T05:17:21;54.29;28.43;72.80;;
45964;Laerm;31671;48.092;11.842;2024-03-29T05:19:47;51.60;28.18;69.55;;
45964;Laerm;31671;48.092;11.842;2024-03-29T05:22:13;52.80;28.65;70.94;;
45964;Laerm;31671;48.092;11.842;2024-03-29T05:24:38;46.17;28.35;63.33;;
45964;Laerm;31671;48.092;11.842;2024-03-29T05:27:04;49.35;28.21;66.68;;
45964;Laerm;31671;48.092;11.842;2024-03-29T05:29:30;53.55;28.25;73.04;;
45964;Laerm;31671;48.092;11.842;2024-03-29T05:31:56;51.94;28.16;69.83;;
45964;Laerm;31671;48.092;11.842;2024-03-29T05:34:21;57.03;28.19;76.92;;
45964;Laerm;31671;48.092;11.842;2024-03-29T05:36:47;48.58;28.09;66.58;;
45964;Laerm;31671;48.092;11.842;2024-03-29T05:39:13;35.97;28.18;55.23;;
45964;Laerm;31671;48.092;11.842;2024-03-29T05:41:38;46.68;28.38;65.82;;
45964;Laerm;31671;48.092;11.842;2024-03-29T05:44:04;47.50;28.21;64.77;;
45964;Laerm;31671;48.092;11.842;2024-03-29T05:46:30;51.42;28.07;73.04;;
45964;Laerm;31671;48.092;11.842;2024-03-29T05:48:55;52.75;28.24;76.67;;
45964;Laerm;31671;48.092;11.842;2024-03-29T05:51:21;49.62;28.42;72.32;;
45964;Laerm;31671;48.092;11.842;2024-03-29T05:53:47;52.72;28.37;73.97;;
45964;Laerm;31671;48.092;11.842;2024-03-29T05:56:12;48.29;28.34;67.47;;
45964;Laerm;31671;48.092;11.842;2024-03-29T05:58:38;55.55;28.08;74.22;;
45964;Laerm;31671;48.092;11.842;2024-03-29T06:01:04;53.93;28.21;71.69;;
45964;Laerm;31671;48.092;11.842;2024-03-29T06:03:30;48.49;28.51;66.55;;
45964;Laerm;31671;48.092;11.842;2024-03-29T06:05:55;50.79;28.64;69.83;;
45964;Laerm;31671;48.092;11.842;2024-03-29T06:08:21;53.02;29.01;67.57;;
45964;Laerm;31671;48.092;11.842;2024-03-29T06:10:47;55.51;28.73;69.97;;
45964;Laerm;31671;48.092;11.842;2024-03-29T06:13:12;50.68;28.15;68.96;;
45964;Laerm;31671;48.092;11.842;2024-03-29T06:15:38;47.59;28.19;66.39;;
45964;Laerm;31671;48.092;11.842;2024-03-29T06:18:04;43.81;28.29;62.40;;
45964;Laerm;31671;48.092;11.842;2024-03-29T06:20:30;49.56;28.24;67.94;;
45964;Laerm;31671;48.092;11.842;2024-03-29T06:22:55;48.29;28.03;67.44;;
45964;Laerm;31671;48.092;11.842;2024-03-29T06:25:21;46.39;28.15;66.02;;
45964;Laerm;31671;48.092;11.842;2024-03-29T06:27:47;38.63;28.23;55.78;;
45964;Laerm;31671;48.092;11.842;2024-03-29T06:30:13;39.69;28.36;58.32;;
45964;Laerm;31671;48.092;11.842;2024-03-29T06:32:39;50.89;28.87;66.93;;
45964;Laerm;31671;48.092;11.842;2024-03-29T06:35:04;43.14;28.85;61.19;;
45964;Laerm;31671;48.092;11.842;2024-03-29T06:37:30;34.96;29.00;53.08;;
45964;Laerm;31671;48.092;11.842;2024-03-29T06:39:56;37.32;29.11;57.26;;
45964;Laerm;31671;48.092;11.842;2024-03-29T06:42:21;44.26;28.90;67.54;;
45964;Laerm;31671;48.092;11.842;2024-03-29T06:44:47;35.73;29.04;56.61;;
45964;Laerm;31671;48.092;11.842;2024-03-29T06:47:13;44.81;28.73;66.02;;
45964;Laerm;31671;48.092;11.842;2024-03-29T06:49:39;47.72;29.09;66.36;;
45964;Laerm;31671;48.092;11.842;2024-03-29T06:52:04;55.45;29.00;74.76;;
45964;Laerm;31671;48.092;11.842;2024-03-29T06:54:30;33.41;28.77;50.94;;
45964;Laerm;31671;48.092;11.842;2024-03-29T06:56:56;37.53;28.86;55.12;;
45964;Laerm;31671;48.092;11.842;2024-03-29T06:59:22;31.40;28.82;46.84;;
45964;Laerm;31671;48.092;11.842;2024-03-29T07:01:48;35.79;29.06;56.95;;
45964;Laerm;31671;48.092;11.842;2024-03-29T07:04:14;36.77;28.68;54.93;;
45964;Laerm;31671;48.092;11.842;2024-03-29T07:06:39;37.62;29.02;58.12;;
45964;Laerm;31671;48.092;11.842;2024-03-29T07:09:05;34.73;28.81;54.20;;
45964;Laerm;31671;48.092;11.842;2024-03-29T07:11:31;38.24;28.89;58.76;;
45964;Laerm;31671;48.092;11.842;2024-03-29T07:13:56;32.57;28.67;50.40;;
45964;Laerm;31671;48.092;11.842;2024-03-29T07:16:22;38.13;28.37;55.25;;
45964;Laerm;31671;48.092;11.842;2024-03-29T07:18:48;33.50;28.70;50.80;;
45964;Laerm;31671;48.092;11.842;2024-03-29T07:21:14;34.77;28.78;52.42;;
45964;Laerm;31671;48.092;11.842;2024-03-29T07:23:39;35.94;28.76;61.30;;
45964;Laerm;31671;48.092;11.842;2024-03-29T07:26:05;34.37;28.57;56.62;;
45964;Laerm;31671;48.092;11.842;2024-03-29T07:28:31;40.20;28.63;61.97;;
45964;Laerm;31671;48.092;11.842;2024-03-29T07:30:57;34.71;28.47;52.73;;
45964;Laerm;31671;48.092;11.842;2024-03-29T07:33:23;36.35;28.58;56.14;;
45964;Laerm;31671;48.092;11.842;2024-03-29T07:35:49;43.14;28.83;61.83;;
45964;Laerm;31671;48.092;11.842;2024-03-29T07:38:15;38.09;28.72;57.61;;
45964;Laerm;31671;48.092;11.842;2024-03-29T07:40:41;34.12;28.18;53.66;;
45964;Laerm;31671;48.092;11.842;2024-03-29T07:43:07;40.06;28.64;57.81;;
45964;Laerm;31671;48.092;11.842;2024-03-29T07:45:33;40.81;28.56;60.97;;
45964;Laerm;31671;48.092;11.842;2024-03-29T07:47:58;40.51;28.62;59.85;;
45964;Laerm;31671;48.092;11.842;2024-03-29T07:50:24;33.27;28.57;53.46;;
45964;Laerm;31671;48.092;11.842;2024-03-29T07:52:50;31.80;28.37;48.74;;
45964;Laerm;31671;48.092;11.842;2024-03-29T07:55:16;32.57;28.31;52.34;;
45964;Laerm;31671;48.092;11.842;2024-03-29T07:57:41;32.78;28.22;57.06;;
45964;Laerm;31671;48.092;11.842;2024-03-29T08:00:10;42.22;28.27;62.77;;
45964;Laerm;31671;48.092;11.842;2024-03-29T08:02:42;39.64;27.78;60.67;;
45964;Laerm;31671;48.092;11.842;2024-03-29T08:05:09;42.03;28.28;61.63;;
45964;Laerm;31671;48.092;11.842;2024-03-29T08:07:34;34.04;28.23;51.29;;
45964;Laerm;31671;48.092;11.842;2024-03-29T08:10:00;42.21;28.29;60.67;;
45964;Laerm;31671;48.092;11.842;2024-03-29T08:12:26;31.14;28.21;45.88;;
45964;Laerm;31671;48.092;11.842;2024-03-29T08:14:52;38.10;28.06;60.35;;
45964;Laerm;31671;48.092;11.842;2024-03-29T08:17:17;35.36;28.05;59.92;;
45964;Laerm;31671;48.092;11.842;2024-03-29T08:19:43;34.67;28.28;53.74;;
45964;Laerm;31671;48.092;11.842;2024-03-29T08:22:09;35.42;27.99;54.93;;
45964;Laerm;31671;48.092;11.842;2024-03-29T08:24:34;32.49;27.99;49.80;;
45964;Laerm;31671;48.092;11.842;2024-03-29T08:27:00;34.75;28.24;56.51;;
45964;Laerm;31671;48.092;11.842;2024-03-29T08:29:26;41.88;28.11;58.20;;
45964;Laerm;31671;48.092;11.842;2024-03-29T08:31:51;37.58;28.05;56.27;;
45964;Laerm;31671;48.092;11.842;2024-03-29T08:34:17;29.79;28.00;42.59;;
45964;Laerm;31671;48.092;11.842;2024-03-29T08:36:43;35.08;28.11;53.38;;
45964;Laerm;31671;48.092;11.842;2024-03-29T08:39:08;32.17;28.11;50.72;;
45964;Laerm;31671;48.092;11.842;2024-03-29T08:41:34;41.81;28.27;60.18;;
45964;Laerm;31671;48.092;11.842;2024-03-29T08:44:01;38.46;28.50;57.82;;
45964;Laerm;31671;48.092;11.842;2024-03-29T08:46:27;33.56;28.34;51.66;;
45964;Laerm;31671;48.092;11.842;2024-03-29T08:48:52;34.58;28.33;52.97;;
45964;Laerm;31671;48.092;11.842;2024-03-29T08:51:18;30.94;28.47;48.76;;
45964;Laerm;31671;48.092;11.842;2024-03-29T08:53:44;30.07;28.24;41.47;;
45964;Laerm;31671;48.092;11.842;2024-03-29T08:56:09;31.49;28.16;49.05;;
45964;Laerm;31671;48.092;11.842;2024-03-29T08:58:35;36.13;28.30;54.63;;
45964;Laerm;31671;48.092;11.842;2024-03-29T09:01:01;40.49;28.47;64.07;;
45964;Laerm;31671;48.092;11.842;2024-03-29T09:03:26;44.36;28.30;64.49;;
45964;Laerm;31671;48.092;11.842;2024-03-29T09:05:52;43.32;28.28;61.29;;
45964;Laerm;31671;48.092;11.842;2024-03-29T09:08:18;33.40;28.01;54.43;;
45964;Laerm;31671;48.092;11.842;2024-03-29T09:10:44;40.48;28.18;60.20;;
45964;Laerm;31671;48.092;11.842;2024-03-29T09:13:09;43.71;28.58;64.82;;
45964;Laerm;31671;48.092;11.842;2024-03-29T09:15:35;45.75;28.54;64.19;;
45964;Laerm;31671;48.092;11.842;2024-03-29T09:18:01;46.14;28.40;66.48;;
45964;Laerm;31671;48.092;11.842;2024-03-29T09:20:26;44.04;28.71;63.60;;
45964;Laerm;31671;48.092;11.842;2024-03-29T09:22:52;47.14;28.67;62.58;;
45964;Laerm;31671;48.092;11.842;2024-03-29T09:25:18;43.35;28.61;64.63;;
45964;Laerm;31671;48.092;11.842;2024-03-29T09:27:46;33.66;28.56;52.33;;
45964;Laerm;31671;48.092;11.842;2024-03-29T09:30:12;41.09;28.62;61.46;;
45964;Laerm;31671;48.092;11.842;2024-03-29T09:32:38;47.19;28.55;66.43;;
45964;Laerm;31671;48.092;11.842;2024-03-29T09:35:03;44.86;28.70;65.37;;
45964;Laerm;31671;48.092;11.842;2024-03-29T09:37:29;31.01;28.33;50.05;;
45964;Laerm;31671;48.092;11.842;2024-03-29T09:39:55;40.43;28.09;60.29;;
45964;Laerm;31671;48.092;11.842;2024-03-29T09:42:22;43.11;28.25;64.77;;
45964;Laerm;31671;48.092;11.842;2024-03-29T09:44:47;49.07;28.30;68.41;;
45964;Laerm;31671;48.092;11.842;2024-03-29T09:47:17;49.24;28.07;66.08;;
45964;Laerm;31671;48.092;11.842;2024-03-29T09:49:43;44.40;27.97;63.73;;
45964;Laerm;31671;48.092;11.842;2024-03-29T09:52:09;46.76;28.15;65.70;;
45964;Laerm;31671;48.092;11.842;2024-03-29T09:54:35;46.63;28.03;64.28;;
45964;Laerm;31671;48.092;11.842;2024-03-29T09:57:01;51.38;27.94;69.88;;
45964;Laerm;31671;48.092;11.842;2024-03-29T09:59:27;52.57;27.94;71.15;;
45964;Laerm;31671;48.092;11.842;2024-03-29T10:01:54;45.30;28.15;65.84;;
45964;Laerm;31671;48.092;11.842;2024-03-29T10:04:21;51.68;28.32;71.72;;
45964;Laerm;31671;48.092;11.842;2024-03-29T10:06:48;47.09;28.13;66.12;;
45964;Laerm;31671;48.092;11.842;2024-03-29T10:09:14;46.19;28.25;63.76;;
45964;Laerm;31671;48.092;11.842;2024-03-29T10:11:40;40.74;28.19;61.26;;
45964;Laerm;31671;48.092;11.842;2024-03-29T10:14:05;52.51;28.12;69.23;;
45964;Laerm;31671;48.092;11.842;2024-03-29T10:16:31;49.08;28.20;73.28;;
45964;Laerm;31671;48.092;11.842;2024-03-29T10:18:59;44.19;28.14;66.10;;
45964;Laerm;31671;48.092;11.842;2024-03-29T10:21:25;46.25;28.38;70.03;;
45964;Laerm;31671;48.092;11.842;2024-03-29T10:23:51;35.12;28.25;56.08;;
45964;Laerm;31671;48.092;11.842;2024-03-29T10:26:17;41.56;28.24;63.14;;
45964;Laerm;31671;48.092;11.842;2024-03-29T10:28:43;41.51;28.47;59.16;;
45964;Laerm;31671;48.092;11.842;2024-03-29T10:31:08;37.96;28.45;56.22;;
45964;Laerm;31671;48.092;11.842;2024-03-29T10:33:34;41.10;28.29;60.57;;
45964;Laerm;31671;48.092;11.842;2024-03-29T10:36:01;38.63;28.25;56.57;;
45964;Laerm;31671;48.092;11.842;2024-03-29T10:38:27;47.83;28.41;66.28;;
45964;Laerm;31671;48.092;11.842;2024-03-29T10:40:53;50.33;28.44;72.24;;
45964;Laerm;31671;48.092;11.842;2024-03-29T10:43:19;46.64;27.82;68.30;;
45964;Laerm;31671;48.092;11.842;2024-03-29T10:45:48;36.62;28.19;54.57;;
45964;Laerm;31671;48.092;11.842;2024-03-29T10:48:14;50.18;28.22;69.89;;
45964;Laerm;31671;48.092;11.842;2024-03-29T10:50:41;47.40;27.94;68.86;;
45964;Laerm;31671;48.092;11.842;2024-03-29T10:53:07;51.12;28.01;71.62;;
45964;Laerm;31671;48.092;11.842;2024-03-29T10:55:33;47.46;28.11;69.00;;
45964;Laerm;31671;48.092;11.842;2024-03-29T10:58:03;48.36;28.25;66.32;;
45964;Laerm;31671;48.092;11.842;2024-03-29T11:00:32;48.18;28.16;64.87;;
45964;Laerm;31671;48.092;11.842;2024-03-29T11:05:33;36.66;28.17;53.37;;
45964;Laerm;31671;48.092;11.842;2024-03-29T11:07:59;47.45;27.97;67.57;;
45964;Laerm;31671;48.092;11.842;2024-03-29T11:10:30;48.61;28.09;69.43;;
45964;Laerm;31671;48.092;11.842;2024-03-29T11:13:02;47.64;28.36;71.78;;
45964;Laerm;31671;48.092;11.842;2024-03-29T11:15:28;44.28;28.20;67.01;;
45964;Laerm;31671;48.092;11.842;2024-03-29T11:17:55;47.94;27.84;64.42;;
45964;Laerm;31671;48.092;11.842;2024-03-29T11:20:22;36.25;27.72;56.15;;
45964;Laerm;31671;48.092;11.842;2024-03-29T11:22:48;42.50;27.95;60.21;;
45964;Laerm;31671;48.092;11.842;2024-03-29T11:25:14;53.69;28.16;73.61;;
45964;Laerm;31671;48.092;11.842;2024-03-29T11:27:40;55.14;28.28;72.48;;
45964;Laerm;31671;48.092;11.842;2024-03-29T11:30:06;37.07;28.03;57.30;;
45964;Laerm;31671;48.092;11.842;2024-03-29T11:32:35;45.36;28.05;66.55;;
45964;Laerm;31671;48.092;11.842;2024-03-29T11:35:01;46.99;28.00;66.76;;
45964;Laerm;31671;48.092;11.842;2024-03-29T11:37:30;52.28;27.82;71.84;;
45964;Laerm;31671;48.092;11.842;2024-03-29T11:39:58;49.49;27.92;66.50;;
45964;Laerm;31671;48.092;11.842;2024-03-29T11:45:23;36.52;27.88;62.76;;
45964;Laerm;31671;48.092;11.842;2024-03-29T11:47:51;35.75;27.96;56.13;;
45964;Laerm;31671;48.092;11.842;2024-03-29T11:50:16;41.47;28.18;58.07;;
45964;Laerm;31671;48.092;11.842;2024-03-29T11:52:42;44.80;28.09;64.55;;
45964;Laerm;31671;48.092;11.842;2024-03-29T11:55:08;40.72;28.10;59.82;;
45964;Laerm;31671;48.092;11.842;2024-03-29T11:57:34;37.94;27.92;56.06;;
45964;Laerm;31671;48.092;11.842;2024-03-29T12:00:00;36.94;27.79;55.70;;
45964;Laerm;31671;48.092;11.842;2024-03-29T12:02:25;45.07;28.01;68.33;;
45964;Laerm;31671;48.092;11.842;2024-03-29T12:04:51;42.31;27.86;60.46;;
45964;Laerm;31671;48.092;11.842;2024-03-29T12:07:17;49.84;27.91;69.20;;
45964;Laerm;31671;48.092;11.842;2024-03-29T12:09:42;48.80;27.95;65.27;;
45964;Laerm;31671;48.092;11.842;2024-03-29T12:12:08;50.38;27.96;66.54;;
45964;Laerm;31671;48.092;11.842;2024-03-29T12:14:35;43.56;27.80;62.68;;
45964;Laerm;31671;48.092;11.842;2024-03-29T12:17:00;37.16;27.74;57.57;;
45964;Laerm;31671;48.092;11.842;2024-03-29T12:19:27;50.93;27.97;69.94;;
45964;Laerm;31671;48.092;11.842;2024-03-29T12:21:53;46.08;27.92;65.42;;
45964;Laerm;31671;48.092;11.842;2024-03-29T12:24:19;44.82;27.55;63.70;;
45964;Laerm;31671;48.092;11.842;2024-03-29T12:26:45;55.49;28.11;71.63;;
45964;Laerm;31671;48.092;11.842;2024-03-29T12:29:11;55.46;28.01;74.14;;
45964;Laerm;31671;48.092;11.842;2024-03-29T12:31:37;53.46;27.76;70.03;;
45964;Laerm;31671;48.092;11.842;2024-03-29T12:34:02;50.92;28.21;70.40;;
45964;Laerm;31671;48.092;11.842;2024-03-29T12:36:28;53.12;27.99;71.10;;
45964;Laerm;31671;48.092;11.842;2024-03-29T12:38:54;47.59;27.74;68.69;;
45964;Laerm;31671;48.092;11.842;2024-03-29T12:41:20;55.45;28.02;72.22;;
45964;Laerm;31671;48.092;11.842;2024-03-29T12:43:45;44.58;27.83;62.86;;
45964;Laerm;31671;48.092;11.842;2024-03-29T12:46:11;51.94;27.88;73.13;;
45964;Laerm;31671;48.092;11.842;2024-03-29T12:48:37;49.88;27.57;69.06;;
45964;Laerm;31671;48.092;11.842;2024-03-29T12:51:03;52.34;28.08;68.75;;
45964;Laerm;31671;48.092;11.842;2024-03-29T12:53:28;50.18;28.05;70.50;;
45964;Laerm;31671;48.092;11.842;2024-03-29T12:55:54;56.61;28.26;76.09;;
45964;Laerm;31671;48.092;11.842;2024-03-29T12:58:20;53.80;27.49;71.77;;
45964;Laerm;31671;48.092;11.842;2024-03-29T13:00:45;50.20;27.97;67.41;;
45964;Laerm;31671;48.092;11.842;2024-03-29T13:03:11;47.75;27.68;67.72;;
45964;Laerm;31671;48.092;11.842;2024-03-29T13:05:37;36.52;27.74;56.09;;
45964;Laerm;31671;48.092;11.842;2024-03-29T13:08:13;51.14;28.16;68.41;;
45964;Laerm;31671;48.092;11.842;2024-03-29T13:10:39;53.31;27.99;70.23;;
45964;Laerm;31671;48.092;11.842;2024-03-29T13:13:05;47.27;28.02;65.26;;
45964;Laerm;31671;48.092;11.842;2024-03-29T13:15:31;51.31;28.12;69.38;;
45964;Laerm;31671;48.092;11.842;2024-03-29T13:17:57;42.01;27.87;62.30;;
45964;Laerm;31671;48.092;11.842;2024-03-29T13:20:23;34.58;27.91;52.37;;
45964;Laerm;31671;48.092;11.842;2024-03-29T13:22:50;42.19;27.74;64.97;;
45964;Laerm;31671;48.092;11.842;2024-03-29T13:25:16;53.69;28.02;74.01;;
45964;Laerm;31671;48.092;11.842;2024-03-29T13:27:42;44.38;27.87;62.20;;
45964;Laerm;31671;48.092;11.842;2024-03-29T13:30:09;51.95;27.91;71.83;;